Time;durP1;ratioP1;P1;durP2;ratioP2;P2;SDS_P1;SDS_P2;PMS_P1;PMS_P2;Temp;Humidity;BMP_temperature;BMP_pressure;BME280_temperature;BME280_humidity;BME280_pressure;Samples;Min_cycle;Max_cycle;Signal;HPM_P1;HPM_P2
2022/01/02 00:01:48;;;;;;;7.53;4.50;;;12.50;99.90;;;;;;5070291;28;20229;-68
2022/01/02 00:04:16;;;;;;;7.45;5.45;;;12.50;99.90;;;;;;5070516;28;20265;-68
2022/01/02 00:06:47;;;;;;;6.40;5.28;;;12.50;99.90;;;;;;5062934;28;20258;-69
2022/01/02 00:09:24;;;;;;;6.32;4.53;;;12.50;99.90;;;;;;5070411;28;20198;-70
2022/01/02 00:11:53;;;;;;;8.90;5.35;;;12.50;99.90;;;;;;5063032;28;20226;-68
2022/01/02 00:14:25;;;;;;;7.80;5.18;;;12.50;99.90;;;;;;5078820;28;20191;-68
2022/01/02 00:16:52;;;;;;;6.43;5.80;;;12.60;99.90;;;;;;5070343;28;20237;-69
2022/01/02 00:19:28;;;;;;;6.60;5.03;;;12.60;99.90;;;;;;5070159;28;20252;-68
2022/01/02 00:21:59;;;;;;;7.60;4.55;;;12.70;99.90;;;;;;5070193;28;20226;-68
2022/01/02 00:24:28;;;;;;;11.18;6.28;;;12.80;99.90;;;;;;5070050;28;20194;-68
2022/01/02 00:26:56;;;;;;;5.55;4.30;;;12.80;99.90;;;;;;5070263;28;20298;-68
2022/01/02 00:29:25;;;;;;;8.30;5.72;;;12.80;99.90;;;;;;5070255;28;20219;-68
2022/01/02 00:31:53;;;;;;;9.38;5.63;;;12.70;99.90;;;;;;5069867;28;20461;-68
2022/01/02 00:34:21;;;;;;;5.82;4.75;;;12.70;99.90;;;;;;5069999;28;20216;-68
2022/01/02 00:36:48;;;;;;;7.35;4.93;;;12.60;99.90;;;;;;5074112;28;20182;-68
2022/01/02 00:39:15;;;;;;;5.88;4.40;;;12.60;99.90;;;;;;5073618;28;20215;-68
2022/01/02 00:41:44;;;;;;;8.57;6.18;;;12.70;99.90;;;;;;5068840;28;20441;-68
2022/01/02 00:44:22;;;;;;;6.88;5.03;;;12.70;99.90;;;;;;5070129;28;20274;-69
2022/01/02 00:46:58;;;;;;;8.05;5.13;;;12.70;99.90;;;;;;5069135;28;20398;-67
2022/01/02 00:49:27;;;;;;;7.07;4.70;;;12.60;99.90;;;;;;5068413;28;20182;-69
2022/01/02 00:52:03;;;;;;;9.23;5.07;;;12.60;99.90;;;;;;5069444;28;20207;-68
2022/01/02 00:54:33;;;;;;;5.65;4.60;;;12.60;99.90;;;;;;5070169;28;20213;-68
2022/01/02 00:57:04;;;;;;;6.85;4.78;;;12.70;99.90;;;;;;5069894;28;20229;-68
2022/01/02 00:59:38;;;;;;;5.50;4.32;;;12.70;99.90;;;;;;5068904;28;20254;-68
2022/01/02 01:02:09;;;;;;;7.07;5.15;;;12.70;99.90;;;;;;5069472;28;20456;-69
2022/01/02 01:04:42;;;;;;;8.52;5.50;;;12.70;99.90;;;;;;5068758;28;20454;-69
2022/01/02 01:07:10;;;;;;;13.13;5.45;;;12.70;99.90;;;;;;5069679;28;20183;-68
2022/01/02 01:09:37;;;;;;;6.50;5.40;;;12.70;99.90;;;;;;5068715;28;20251;-68
2022/01/02 01:12:05;;;;;;;6.15;4.90;;;12.80;99.90;;;;;;5069167;28;20207;-68
2022/01/02 01:14:34;;;;;;;5.82;4.60;;;12.70;99.90;;;;;;5069097;28;20195;-69
2022/01/02 01:17:01;;;;;;;7.07;5.60;;;12.70;99.90;;;;;;5069090;28;20655;-68
2022/01/02 01:19:30;;;;;;;7.00;5.00;;;12.60;99.90;;;;;;5068526;28;20187;-68
2022/01/02 01:21:57;;;;;;;6.93;5.47;;;12.60;99.90;;;;;;5068665;28;20265;-68
2022/01/02 01:24:24;;;;;;;6.68;5.70;;;12.50;99.90;;;;;;5067263;28;20221;-68
2022/01/02 01:26:53;;;;;;;7.82;5.75;;;12.50;99.90;;;;;;5069201;28;20182;-67
2022/01/02 01:29:20;;;;;;;10.82;6.15;;;12.50;99.90;;;;;;5069232;28;20205;-69
2022/01/02 01:31:47;;;;;;;6.25;5.65;;;12.50;99.90;;;;;;5068344;28;20437;-68
2022/01/02 01:34:14;;;;;;;9.48;6.88;;;12.50;99.90;;;;;;5068780;28;20203;-68
2022/01/02 01:36:43;;;;;;;7.63;5.53;;;12.50;99.90;;;;;;5069094;28;20209;-67
2022/01/02 01:39:10;;;;;;;7.05;5.82;;;12.60;99.90;;;;;;5068881;28;20238;-66
2022/01/02 01:41:38;;;;;;;7.35;5.75;;;12.60;99.90;;;;;;5068297;28;20255;-66
2022/01/02 01:44:27;;;;;;;6.47;5.00;;;12.60;99.90;;;;;;5068687;28;20309;-65
2022/01/02 01:46:56;;;;;;;6.57;5.70;;;12.70;99.90;;;;;;5068932;28;20256;-68
2022/01/02 01:49:27;;;;;;;9.07;5.63;;;12.70;99.90;;;;;;5072192;28;20194;-66
2022/01/02 01:51:56;;;;;;;9.30;5.70;;;12.70;99.90;;;;;;5068300;28;20441;-66
2022/01/02 01:54:23;;;;;;;10.15;6.03;;;12.60;99.90;;;;;;5068734;28;20261;-67
2022/01/02 01:56:52;;;;;;;8.65;5.80;;;12.60;99.90;;;;;;5068765;28;20189;-66
2022/01/02 01:59:20;;;;;;;7.10;4.90;;;12.50;99.90;;;;;;5068319;28;20183;-66
2022/01/02 02:01:48;;;;;;;7.60;5.65;;;12.50;99.90;;;;;;5072652;28;20277;-66
2022/01/02 02:04:17;;;;;;;9.20;5.95;;;12.30;99.90;;;;;;5068273;28;20252;-66
2022/01/02 02:06:44;;;;;;;9.05;6.60;;;12.30;99.90;;;;;;5060672;28;20210;-66
2022/01/02 02:09:12;;;;;;;8.88;6.20;;;12.20;99.90;;;;;;5076472;28;20236;-65
2022/01/02 02:11:40;;;;;;;10.70;7.03;;;12.10;99.90;;;;;;5071114;28;20212;-66
2022/01/02 02:14:08;;;;;;;12.18;7.28;;;12.20;99.90;;;;;;5070858;28;20213;-65
2022/01/02 02:16:36;;;;;;;11.35;7.53;;;12.10;99.90;;;;;;5067443;28;20232;-66
2022/01/02 02:19:03;;;;;;;10.77;8.15;;;12.10;99.90;;;;;;5069504;28;20208;-66
2022/01/02 02:21:33;;;;;;;8.52;7.07;;;12.10;99.90;;;;;;5067370;28;20253;-66
2022/01/02 02:24:01;;;;;;;8.90;6.90;;;12.20;99.90;;;;;;5068164;28;20205;-65
2022/01/02 02:26:28;;;;;;;9.60;6.85;;;12.20;99.90;;;;;;5067948;28;20229;-65
2022/01/02 02:28:56;;;;;;;11.77;7.60;;;12.10;99.90;;;;;;5068011;28;20213;-65
2022/01/02 02:31:25;;;;;;;10.60;7.70;;;12.10;99.90;;;;;;5066997;28;20237;-65
2022/01/02 02:33:53;;;;;;;12.25;6.97;;;12.10;99.90;;;;;;5072984;28;20209;-65
2022/01/02 02:36:21;;;;;;;10.20;7.50;;;12.00;99.90;;;;;;5067620;28;20262;-67
2022/01/02 02:38:49;;;;;;;9.77;7.38;;;11.90;99.90;;;;;;5067581;28;20190;-66
2022/01/02 02:41:16;;;;;;;13.10;7.38;;;12.00;99.90;;;;;;5067112;28;20221;-67
2022/01/02 02:43:53;;;;;;;10.70;7.13;;;12.00;99.90;;;;;;5067918;28;20183;-67
2022/01/02 02:49:05;;;;;;;10.95;7.30;;;11.90;99.90;;;;;;5067504;28;20204;-68
2022/01/02 02:51:45;;;;;;;10.40;8.07;;;11.90;99.90;;;;;;5066686;28;20206;-67
2022/01/02 02:54:20;;;;;;;13.10;8.00;;;11.90;99.90;;;;;;5066369;28;20439;-67
2022/01/02 02:56:55;;;;;;;10.85;7.90;;;11.80;99.90;;;;;;5066540;28;20203;-68
2022/01/02 02:59:23;;;;;;;11.02;7.95;;;11.90;99.90;;;;;;5067074;28;20196;-68
2022/01/02 03:01:50;;;;;;;10.00;7.82;;;11.80;99.90;;;;;;5066824;28;20250;-67
2022/01/02 03:04:17;;;;;;;15.05;8.63;;;11.80;99.90;;;;;;5067253;28;20252;-67
2022/01/02 03:06:44;;;;;;;16.85;8.73;;;11.80;99.90;;;;;;5067187;28;20186;-67
2022/01/02 03:09:12;;;;;;;13.82;8.63;;;11.80;99.90;;;;;;5067445;28;20288;-68
2022/01/02 03:11:42;;;;;;;12.30;8.25;;;11.70;99.90;;;;;;5066676;28;20257;-68
2022/01/02 03:14:11;;;;;;;16.30;8.93;;;11.80;99.90;;;;;;5067216;28;20371;-67
2022/01/02 03:16:39;;;;;;;13.90;8.90;;;11.70;99.90;;;;;;5075539;28;20208;-67
2022/01/02 03:19:06;;;;;;;14.85;8.32;;;11.70;99.90;;;;;;5066959;28;20268;-67
2022/01/02 03:21:36;;;;;;;11.05;8.35;;;11.70;99.90;;;;;;5066296;28;20297;-67
2022/01/02 03:24:03;;;;;;;13.15;8.75;;;11.70;99.90;;;;;;5066822;28;20436;-67
2022/01/02 03:26:31;;;;;;;11.70;9.30;;;11.70;99.90;;;;;;5066591;28;20418;-67
2022/01/02 03:29:01;;;;;;;12.82;9.02;;;11.70;99.90;;;;;;5067384;28;20244;-68
2022/01/02 03:31:28;;;;;;;16.88;8.95;;;11.70;99.90;;;;;;5066191;28;20449;-67
2022/01/02 03:33:55;;;;;;;13.00;8.43;;;11.70;99.90;;;;;;5064361;28;20197;-67
2022/01/02 03:36:24;;;;;;;12.60;8.35;;;11.70;99.90;;;;;;5066691;28;20251;-67
2022/01/02 03:38:51;;;;;;;11.55;8.23;;;11.80;99.90;;;;;;5066690;28;20218;-68
2022/01/02 03:41:18;;;;;;;16.42;10.20;;;11.90;99.90;;;;;;5065949;28;20238;-68
2022/01/02 03:43:45;;;;;;;10.95;8.70;;;11.90;99.90;;;;;;5071120;28;20193;-67
2022/01/02 03:46:14;;;;;;;9.38;7.38;;;11.90;99.90;;;;;;5068659;28;20253;-68
2022/01/02 03:48:41;;;;;;;12.38;8.02;;;11.90;99.90;;;;;;5067114;28;20372;-67
2022/01/02 03:51:08;;;;;;;10.93;8.02;;;11.90;99.90;;;;;;5065939;28;20219;-68
2022/01/02 03:53:35;;;;;;;10.40;8.23;;;11.90;99.90;;;;;;5066729;28;20365;-68
2022/01/02 03:56:02;;;;;;;10.77;9.27;;;11.90;99.90;;;;;;5066896;28;20195;-67
2022/01/02 03:58:30;;;;;;;13.85;9.30;;;11.90;99.90;;;;;;5066686;28;20258;-67
2022/01/02 04:00:57;;;;;;;14.40;10.60;;;11.90;99.90;;;;;;5065708;28;20207;-68
2022/01/02 04:03:25;;;;;;;12.25;7.90;;;11.90;99.90;;;;;;5066947;28;20237;-70
2022/01/02 04:05:52;;;;;;;13.85;8.73;;;11.90;99.90;;;;;;5067457;28;20400;-68
2022/01/02 04:08:19;;;;;;;12.45;7.85;;;11.80;99.90;;;;;;5066517;28;20187;-68
2022/01/02 04:10:46;;;;;;;10.10;8.40;;;11.80;99.90;;;;;;5066040;28;20214;-68
2022/01/02 04:13:13;;;;;;;12.60;8.75;;;11.90;99.90;;;;;;5066821;28;20189;-68
2022/01/02 04:15:40;;;;;;;11.88;9.48;;;11.90;99.90;;;;;;5066753;28;20213;-68
2022/01/02 04:18:06;;;;;;;10.65;9.18;;;11.90;99.90;;;;;;5066442;28;20359;-68
2022/01/02 04:20:35;;;;;;;12.98;7.97;;;11.80;99.90;;;;;;5066052;28;20244;-68
2022/01/02 04:23:07;;;;;;;10.05;8.32;;;11.80;99.90;;;;;;5074816;28;20246;-68
2022/01/02 04:25:34;;;;;;;11.77;8.68;;;11.80;99.90;;;;;;5065359;28;20413;-68
2022/01/02 04:28:02;;;;;;;14.90;7.55;;;11.80;99.90;;;;;;5066170;28;20195;-67
2022/01/02 04:30:29;;;;;;;9.73;7.65;;;11.90;99.90;;;;;;5065523;28;20463;-68
2022/01/02 04:32:56;;;;;;;11.02;8.77;;;11.90;99.90;;;;;;5066736;28;20214;-68
2022/01/02 04:35:23;;;;;;;13.60;7.45;;;12.00;99.90;;;;;;5069475;28;20223;-68
2022/01/02 04:37:51;;;;;;;8.75;6.60;;;12.00;99.90;;;;;;5066554;28;20187;-68
2022/01/02 04:40:19;;;;;;;11.35;8.02;;;11.90;99.90;;;;;;5069051;28;20191;-67
2022/01/02 04:42:48;;;;;;;9.60;7.15;;;11.90;99.90;;;;;;5074204;28;20214;-68
2022/01/02 04:45:14;;;;;;;12.00;8.05;;;11.90;99.90;;;;;;5073820;28;20232;-68
2022/01/02 04:47:41;;;;;;;26.10;9.48;;;12.00;99.90;;;;;;5069985;28;20194;-68
2022/01/02 04:50:09;;;;;;;12.25;6.70;;;11.90;99.90;;;;;;5069543;28;20214;-68
2022/01/02 04:52:36;;;;;;;9.80;7.28;;;12.00;99.90;;;;;;5069204;28;20206;-68
2022/01/02 04:55:04;;;;;;;11.05;7.40;;;12.00;99.90;;;;;;5069729;28;20190;-68
2022/01/02 04:57:34;;;;;;;13.80;7.78;;;12.10;99.90;;;;;;5070075;28;20249;-68
2022/01/02 05:00:01;;;;;;;10.40;7.15;;;12.10;99.90;;;;;;5069897;28;20197;-68
2022/01/02 05:02:34;;;;;;;9.88;6.88;;;12.10;99.90;;;;;;5069707;28;20285;-69
2022/01/02 05:05:03;;;;;;;12.80;7.13;;;12.10;99.90;;;;;;5069504;28;20229;-67
2022/01/02 05:07:30;;;;;;;14.13;7.50;;;12.10;99.90;;;;;;5069471;28;20260;-66
2022/01/02 05:09:57;;;;;;;11.20;6.90;;;12.10;99.90;;;;;;5068907;28;20182;-68
2022/01/02 05:12:25;;;;;;;11.38;7.20;;;12.10;99.90;;;;;;5069730;28;20242;-67
2022/01/02 05:14:55;;;;;;;9.55;7.07;;;12.10;99.90;;;;;;5069369;28;20190;-68
2022/01/02 05:17:22;;;;;;;7.43;6.55;;;12.10;99.90;;;;;;5075430;28;20210;-68
2022/01/02 05:19:48;;;;;;;7.55;6.03;;;12.10;99.90;;;;;;5068480;28;20364;-68
2022/01/02 05:22:15;;;;;;;13.50;7.53;;;12.00;99.90;;;;;;5072914;28;20217;-68
2022/01/02 05:24:42;;;;;;;17.27;7.75;;;12.00;99.90;;;;;;5068517;28;20210;-68
2022/01/02 05:27:12;;;;;;;14.55;7.40;;;12.00;99.90;;;;;;5071495;28;20257;-67
2022/01/02 05:29:40;;;;;;;10.02;6.50;;;12.10;99.90;;;;;;5067946;28;20388;-68
2022/01/02 05:32:07;;;;;;;11.73;7.03;;;12.00;99.90;;;;;;5069128;28;20272;-67
2022/01/02 05:34:34;;;;;;;16.38;7.57;;;12.10;99.90;;;;;;5069009;28;20253;-67
2022/01/02 05:37:03;;;;;;;11.95;7.43;;;12.00;99.90;;;;;;5068984;28;20190;-68
2022/01/02 05:39:30;;;;;;;15.77;8.02;;;12.10;99.90;;;;;;5068007;28;20190;-68
2022/01/02 05:41:56;;;;;;;8.63;6.20;;;12.10;99.90;;;;;;5068769;28;20207;-68
2022/01/02 05:44:23;;;;;;;8.82;6.55;;;12.10;99.90;;;;;;5068824;28;20224;-68
2022/01/02 05:46:52;;;;;;;14.55;7.00;;;12.10;99.90;;;;;;5068995;28;20225;-68
2022/01/02 05:49:19;;;;;;;18.65;6.68;;;12.10;99.90;;;;;;5068249;28;20194;-68
2022/01/02 05:51:48;;;;;;;15.13;6.63;;;12.10;99.90;;;;;;5068568;28;20229;-69
2022/01/02 05:54:15;;;;;;;11.15;6.57;;;12.20;99.90;;;;;;5068582;28;20224;-67
2022/01/02 05:56:42;;;;;;;9.10;5.20;;;12.20;99.90;;;;;;5063000;28;20191;-68
2022/01/02 05:59:09;;;;;;;11.27;5.82;;;12.20;99.90;;;;;;5068996;28;20214;-68
2022/01/02 06:01:36;;;;;;;10.60;6.25;;;12.20;99.90;;;;;;5067667;28;20253;-67
2022/01/02 06:04:06;;;;;;;10.50;7.20;;;12.10;99.90;;;;;;5068606;28;20230;-68
2022/01/02 06:06:33;;;;;;;9.50;6.50;;;12.10;99.90;;;;;;5068622;28;20198;-68
2022/01/02 06:09:00;;;;;;;12.15;5.60;;;12.20;99.90;;;;;;5068473;28;20205;-68
2022/01/02 06:11:27;;;;;;;10.93;6.50;;;12.20;99.90;;;;;;5067845;28;20234;-68
2022/01/02 06:13:56;;;;;;;8.95;7.18;;;12.20;99.90;;;;;;5068400;28;20179;-68
2022/01/02 06:16:22;;;;;;;9.45;4.85;;;12.30;99.90;;;;;;5068207;28;20187;-67
2022/01/02 06:18:51;;;;;;;7.60;5.80;;;12.30;99.90;;;;;;5068531;28;20195;-68
2022/01/02 06:21:19;;;;;;;14.27;6.13;;;12.30;99.90;;;;;;5067416;28;20379;-68
2022/01/02 06:23:46;;;;;;;7.53;5.93;;;12.30;99.90;;;;;;5068017;28;20250;-68
2022/01/02 06:26:13;;;;;;;11.43;6.50;;;12.30;99.90;;;;;;5068094;28;20230;-67
2022/01/02 06:28:40;;;;;;;12.70;8.65;;;12.30;99.90;;;;;;5068372;28;20194;-68
2022/01/02 06:31:08;;;;;;;11.93;6.70;;;12.40;99.90;;;;;;5067930;28;20278;-66
2022/01/02 06:33:35;;;;;;;7.93;6.25;;;12.40;99.90;;;;;;5067977;28;20258;-66
2022/01/02 06:36:06;;;;;;;13.65;6.30;;;12.50;99.90;;;;;;5067875;28;20198;-67
2022/01/02 06:38:35;;;;;;;10.65;5.95;;;12.50;99.90;;;;;;5067729;28;20197;-67
2022/01/02 06:41:04;;;;;;;10.98;5.13;;;12.50;99.90;;;;;;5066796;28;20273;-66
2022/01/02 06:43:32;;;;;;;11.38;5.07;;;12.50;99.90;;;;;;5067536;28;20219;-67
2022/01/02 06:45:59;;;;;;;10.23;4.82;;;12.50;99.90;;;;;;5067901;28;20191;-67
2022/01/02 06:48:26;;;;;;;7.00;4.82;;;12.50;99.90;;;;;;5067635;28;20222;-66
2022/01/02 06:50:53;;;;;;;9.48;5.15;;;12.50;99.90;;;;;;5066754;28;20253;-67
2022/01/02 06:53:20;;;;;;;11.82;5.30;;;12.60;99.90;;;;;;5067431;28;20218;-66
2022/01/02 06:55:48;;;;;;;5.25;3.90;;;12.60;99.90;;;;;;5067551;28;20191;-66
2022/01/02 06:58:15;;;;;;;12.60;6.60;;;12.60;99.90;;;;;;5067391;28;20237;-66
2022/01/02 07:00:42;;;;;;;16.35;4.45;;;12.60;99.90;;;;;;5066131;28;20203;-66
2022/01/02 07:03:09;;;;;;;12.30;4.95;;;12.60;99.90;;;;;;5067349;28;20452;-67
2022/01/02 07:05:43;;;;;;;9.80;5.07;;;12.60;99.90;;;;;;5067569;28;20246;-66
2022/01/02 07:08:11;;;;;;;5.13;4.30;;;12.60;99.90;;;;;;5062375;28;20313;-67
2022/01/02 07:10:38;;;;;;;7.15;5.07;;;12.60;99.90;;;;;;5066161;28;20226;-66
2022/01/02 07:13:07;;;;;;;9.95;4.88;;;12.60;99.90;;;;;;5067585;28;20184;-67
2022/01/02 07:15:34;;;;;;;10.23;4.72;;;12.60;99.90;;;;;;5067292;28;20241;-67
2022/01/02 07:18:01;;;;;;;9.75;4.93;;;12.60;99.90;;;;;;5067424;28;20191;-66
2022/01/02 07:20:29;;;;;;;8.35;5.32;;;12.60;99.90;;;;;;5066285;28;20270;-67
2022/01/02 07:22:56;;;;;;;13.57;5.57;;;12.60;99.90;;;;;;5067057;28;20248;-67
2022/01/02 07:25:23;;;;;;;10.55;4.53;;;12.60;99.90;;;;;;5066433;28;20205;-67
2022/01/02 07:27:52;;;;;;;10.95;5.93;;;12.70;99.90;;;;;;5067435;28;20213;-67
2022/01/02 07:30:22;;;;;;;6.68;4.78;;;12.60;99.90;;;;;;5066323;28;20191;-67
2022/01/02 07:32:51;;;;;;;7.22;4.60;;;12.70;99.90;;;;;;5067084;28;20254;-67
2022/01/02 07:35:18;;;;;;;11.13;5.45;;;12.60;99.90;;;;;;5067036;28;20418;-67
2022/01/02 07:37:44;;;;;;;10.55;4.55;;;12.60;99.90;;;;;;5067016;28;20190;-67
2022/01/02 07:40:18;;;;;;;6.82;5.22;;;12.60;99.90;;;;;;5065934;28;20413;-67
2022/01/02 07:42:45;;;;;;;7.70;4.28;;;12.60;99.90;;;;;;5066903;28;20229;-67
2022/01/02 07:45:12;;;;;;;7.47;5.10;;;12.60;99.90;;;;;;5067201;28;20202;-68
2022/01/02 07:47:41;;;;;;;6.70;4.22;;;12.60;99.90;;;;;;5066755;28;20298;-65
2022/01/02 07:50:09;;;;;;;10.02;5.85;;;12.60;99.90;;;;;;5066275;28;20258;-68
2022/01/02 07:52:35;;;;;;;9.40;5.60;;;12.60;99.90;;;;;;5066691;28;20249;-67
2022/01/02 07:55:02;;;;;;;9.50;4.85;;;12.60;99.90;;;;;;5066663;28;20225;-66
2022/01/02 07:57:29;;;;;;;9.32;4.32;;;12.60;99.90;;;;;;5056915;28;20231;-66
2022/01/02 07:59:58;;;;;;;8.20;5.10;;;12.60;99.90;;;;;;5066180;28;20183;-66
2022/01/02 08:02:25;;;;;;;9.95;5.97;;;12.70;99.90;;;;;;5068049;28;20467;-67
2022/01/02 08:04:54;;;;;;;9.60;4.65;;;12.70;99.90;;;;;;5066746;28;20240;-69
2022/01/02 08:07:21;;;;;;;13.20;5.20;;;12.70;99.90;;;;;;5066875;28;20191;-68
2022/01/02 08:09:47;;;;;;;11.60;5.10;;;12.70;99.90;;;;;;5065782;28;20250;-67
2022/01/02 08:12:14;;;;;;;8.07;5.40;;;12.70;99.90;;;;;;5067645;28;20222;-67
2022/01/02 08:14:41;;;;;;;8.60;4.57;;;12.70;99.90;;;;;;5070817;28;20380;-67
2022/01/02 08:17:08;;;;;;;10.93;5.13;;;12.80;99.90;;;;;;5070801;28;20202;-67
2022/01/02 08:19:35;;;;;;;6.78;4.97;;;12.80;99.90;;;;;;5069844;28;20372;-67
2022/01/02 08:22:03;;;;;;;6.65;4.57;;;12.80;99.90;;;;;;5070579;28;20291;-67
2022/01/02 08:24:30;;;;;;;8.55;5.60;;;12.80;99.90;;;;;;5070190;28;20254;-68
2022/01/02 08:26:57;;;;;;;16.60;5.53;;;12.80;99.90;;;;;;5070425;28;20187;-67
2022/01/02 08:29:25;;;;;;;12.57;5.07;;;12.80;99.90;;;;;;5069666;28;20234;-67
2022/01/02 08:31:52;;;;;;;7.22;4.05;;;12.80;99.90;;;;;;5069959;28;20235;-67
2022/01/02 08:34:19;;;;;;;9.80;4.70;;;12.80;99.90;;;;;;5069870;28;20233;-67
2022/01/02 08:36:46;;;;;;;13.52;5.00;;;12.90;99.90;;;;;;5070237;28;20194;-67
2022/01/02 08:39:14;;;;;;;6.20;4.38;;;13.00;99.90;;;;;;5069925;28;20215;-67
2022/01/02 08:41:44;;;;;;;11.38;5.60;;;13.00;99.90;;;;;;5062714;28;20215;-67
2022/01/02 08:44:13;;;;;;;13.57;4.90;;;13.00;99.90;;;;;;5069748;28;20210;-68
2022/01/02 08:46:40;;;;;;;9.18;4.70;;;13.00;99.90;;;;;;5069884;28;20215;-66
2022/01/02 08:49:07;;;;;;;9.00;4.53;;;13.00;99.90;;;;;;5070038;28;20198;-69
2022/01/02 08:51:34;;;;;;;5.40;4.28;;;13.10;99.90;;;;;;5069339;28;20207;-66
2022/01/02 08:54:05;;;;;;;14.10;5.63;;;13.30;99.90;;;;;;5069350;28;20247;-66
2022/01/02 08:56:34;;;;;;;10.20;4.47;;;13.10;99.90;;;;;;5069506;28;20260;-67
2022/01/02 08:59:01;;;;;;;6.18;4.70;;;13.10;99.90;;;;;;5071553;28;20226;-66
2022/01/02 09:01:30;;;;;;;6.78;4.45;;;13.10;99.90;;;;;;5068730;28;20457;-68
2022/01/02 09:03:57;;;;;;;7.13;4.47;;;13.10;99.90;;;;;;5069965;28;20192;-66
2022/01/02 09:06:24;;;;;;;7.40;4.43;;;13.10;99.90;;;;;;5069332;28;20195;-67
2022/01/02 09:08:53;;;;;;;7.47;4.15;;;13.10;99.90;;;;;;5073594;28;20255;-67
2022/01/02 09:11:21;;;;;;;7.57;5.18;;;13.20;99.90;;;;;;5068587;28;20203;-67
2022/01/02 09:13:51;;;;;;;8.10;4.57;;;13.20;99.90;;;;;;5069452;28;20192;-67
2022/01/02 09:16:17;;;;;;;10.90;5.85;;;13.20;99.90;;;;;;5069009;28;20187;-67
2022/01/02 09:18:47;;;;;;;9.77;6.00;;;13.20;99.90;;;;;;5069552;28;20259;-68
2022/01/02 09:21:15;;;;;;;11.48;5.22;;;13.20;99.90;;;;;;5068442;28;20327;-67
2022/01/02 09:23:41;;;;;;;6.50;4.22;;;13.20;99.90;;;;;;5060398;28;20210;-67
2022/01/02 09:26:11;;;;;;;9.68;5.32;;;13.20;99.90;;;;;;5069232;28;20195;-67
2022/01/02 09:28:38;;;;;;;13.18;4.60;;;13.20;99.90;;;;;;5069483;28;20259;-67
2022/01/02 09:31:07;;;;;;;8.98;5.68;;;13.20;99.90;;;;;;5068387;28;20342;-67
2022/01/02 09:33:34;;;;;;;9.50;4.53;;;13.10;99.90;;;;;;5068969;28;20196;-67
2022/01/02 09:36:01;;;;;;;7.95;4.55;;;13.00;99.90;;;;;;5063448;28;20203;-66
2022/01/02 09:38:28;;;;;;;10.35;4.20;;;13.00;99.90;;;;;;5068843;28;20204;-68
2022/01/02 09:40:55;;;;;;;6.35;3.90;;;13.00;99.90;;;;;;5070234;28;20227;-67
2022/01/02 09:43:22;;;;;;;8.70;3.80;;;13.00;99.90;;;;;;5069002;28;20267;-68
2022/01/02 09:45:50;;;;;;;7.97;4.05;;;13.00;99.90;;;;;;5068886;28;20227;-66
2022/01/02 09:48:18;;;;;;;7.68;4.60;;;13.10;99.90;;;;;;5068646;28;20230;-67
2022/01/02 09:50:47;;;;;;;8.27;4.07;;;13.10;99.90;;;;;;5067880;28;20211;-67
2022/01/02 09:53:14;;;;;;;7.53;3.90;;;13.00;99.90;;;;;;5068833;28;20188;-68
2022/01/02 09:55:41;;;;;;;5.93;4.07;;;13.00;99.90;;;;;;5068775;28;20187;-66
2022/01/02 09:58:11;;;;;;;12.07;3.97;;;13.00;99.90;;;;;;5068548;28;20222;-67
2022/01/02 10:00:39;;;;;;;6.22;3.75;;;13.00;99.90;;;;;;5067719;28;20207;-68
2022/01/02 10:03:10;;;;;;;5.82;3.55;;;13.10;99.90;;;;;;5068489;28;20230;-68
2022/01/02 10:05:53;;;;;;;9.68;4.15;;;13.00;99.90;;;;;;5068561;28;20210;-68
2022/01/02 10:08:22;;;;;;;6.88;4.65;;;13.00;99.90;;;;;;5065493;28;20192;-67
2022/01/02 10:10:58;;;;;;;9.27;5.35;;;13.10;99.90;;;;;;5067594;28;20258;-68
2022/01/02 10:13:38;;;;;;;10.68;6.20;;;13.10;99.90;;;;;;5068454;28;20255;-68
2022/01/02 10:16:05;;;;;;;7.25;4.32;;;13.20;99.90;;;;;;5076211;28;20191;-67
2022/01/02 10:18:32;;;;;;;10.80;5.05;;;13.20;99.90;;;;;;5068308;28;20211;-67
2022/01/02 10:21:02;;;;;;;10.85;4.50;;;13.20;99.90;;;;;;5067219;28;20234;-68
2022/01/02 10:23:29;;;;;;;10.20;5.00;;;13.20;99.90;;;;;;5067801;28;20449;-67
2022/01/02 10:26:00;;;;;;;9.05;5.22;;;13.20;99.90;;;;;;5067793;28;20183;-67
2022/01/02 10:28:35;;;;;;;7.45;4.28;;;13.10;99.90;;;;;;5067696;28;20187;-68
2022/01/02 10:31:08;;;;;;;9.00;4.60;;;13.10;99.90;;;;;;5067444;28;20207;-68
2022/01/02 10:33:50;;;;;;;10.00;4.97;;;13.20;99.90;;;;;;5068069;28;20184;-69
2022/01/02 10:36:29;;;;;;;10.43;5.10;;;13.20;99.90;;;;;;5066770;28;20429;-67
2022/01/02 10:39:01;;;;;;;7.10;4.97;;;13.20;99.90;;;;;;5067422;28;20188;-68
2022/01/02 10:41:38;;;;;;;9.10;4.43;;;13.30;99.90;;;;;;5066931;28;20239;-68
2022/01/02 10:44:29;;;;;;;7.03;4.30;;;13.40;99.90;;;;;;5066538;28;20426;-68
2022/01/02 10:47:11;;;;;;;7.47;5.30;;;13.40;99.90;;;;;;5067647;28;20222;-68
2022/01/02 10:49:53;;;;;;;8.93;4.45;;;13.40;99.90;;;;;;5066463;28;20390;-67
2022/01/02 10:52:26;;;;;;;9.88;4.65;;;13.50;99.90;;;;;;5067544;28;20208;-68
2022/01/02 10:54:57;;;;;;;8.80;4.97;;;13.50;99.90;;;;;;5072457;28;20191;-67
2022/01/02 10:57:24;;;;;;;10.00;4.32;;;13.50;99.90;;;;;;5068229;28;20222;-66
2022/01/02 10:59:56;;;;;;;5.43;3.28;;;13.40;99.90;;;;;;5066407;28;20234;-68
2022/01/02 11:02:24;;;;;;;6.88;3.40;;;13.30;99.90;;;;;;5064902;28;20343;-70
2022/01/02 11:05:03;;;;;;;7.93;4.47;;;13.40;99.90;;;;;;5066939;28;20406;-68
2022/01/02 11:07:39;;;;;;;9.60;3.88;;;13.50;99.90;;;;;;5067196;28;20207;-67
2022/01/02 11:10:07;;;;;;;12.65;5.05;;;13.50;99.90;;;;;;5065437;28;20538;-67
2022/01/02 11:12:34;;;;;;;6.35;3.75;;;13.50;99.90;;;;;;5067299;28;20224;-67
2022/01/02 11:15:02;;;;;;;12.63;4.45;;;13.50;99.90;;;;;;5067129;28;20194;-67
2022/01/02 11:17:29;;;;;;;7.38;4.53;;;13.50;99.90;;;;;;5066497;28;20241;-69
2022/01/02 11:19:56;;;;;;;6.97;4.45;;;13.40;99.90;;;;;;5066089;28;20211;-67
2022/01/02 11:22:30;;;;;;;9.85;3.97;;;13.40;99.90;;;;;;5066344;28;20219;-68
2022/01/02 11:25:06;;;;;;;5.45;4.85;;;13.50;99.90;;;;;;5066559;28;20267;-67
2022/01/02 11:27:41;;;;;;;9.00;4.60;;;13.50;99.90;;;;;;5066777;28;20226;-67
2022/01/02 11:30:38;;;;;;;7.05;3.35;;;13.40;99.90;;;;;;5065411;28;20183;-68
2022/01/02 11:33:06;;;;;;;7.75;4.35;;;13.50;99.90;;;;;;5061628;28;20215;-67
2022/01/02 11:35:35;;;;;;;10.25;3.90;;;13.50;99.90;;;;;;5066640;28;20198;-68
2022/01/02 11:38:03;;;;;;;7.82;4.18;;;13.50;99.90;;;;;;5066212;28;20231;-67
2022/01/02 11:40:52;;;;;;;8.93;4.53;;;13.50;99.90;;;;;;5065959;28;20223;-68
2022/01/02 11:43:53;;;;;;;8.82;4.25;;;13.60;99.90;;;;;;5063574;28;20192;-67
2022/01/02 11:46:23;;;;;;;9.57;4.38;;;13.70;99.90;;;;;;5063911;28;20207;-68
2022/01/02 11:49:13;;;;;;;8.73;4.45;;;13.70;99.90;;;;;;5065984;28;20394;-68
2022/01/02 11:52:03;;;;;;;6.85;4.70;;;13.80;99.90;;;;;;5065284;28;20214;-68
2022/01/02 11:54:46;;;;;;;8.23;3.97;;;13.80;99.90;;;;;;5057443;28;20195;-68
2022/01/02 11:57:56;;;;;;;7.35;4.85;;;14.00;99.90;;;;;;5065439;28;20184;-67
2022/01/02 12:00:51;;;;;;;8.63;4.68;;;13.90;99.90;;;;;;5065922;28;20234;-68
2022/01/02 12:03:47;;;;;;;6.32;4.38;;;14.00;99.90;;;;;;5066474;28;20245;-68
2022/01/02 12:06:20;;;;;;;4.90;4.47;;;14.10;99.90;;;;;;5066716;28;20215;-68
2022/01/02 12:08:47;;;;;;;8.15;4.43;;;14.10;99.90;;;;;;5066770;28;20226;-69
2022/01/02 12:11:42;;;;;;;6.60;4.35;;;14.00;99.90;;;;;;5067990;28;20454;-69
2022/01/02 12:14:11;;;;;;;5.90;4.15;;;14.00;99.90;;;;;;5061983;28;20421;-68
2022/01/02 12:16:43;;;;;;;6.60;4.30;;;13.90;99.90;;;;;;5066410;28;20208;-69
2022/01/02 12:19:10;;;;;;;9.00;5.47;;;13.80;99.90;;;;;;5073838;28;20191;-68
2022/01/02 12:21:41;;;;;;;8.70;4.90;;;13.80;99.90;;;;;;5065616;28;20235;-68
2022/01/02 12:24:12;;;;;;;8.38;4.60;;;13.70;99.90;;;;;;5068884;28;20271;-68
2022/01/02 12:26:40;;;;;;;4.97;3.58;;;13.70;99.90;;;;;;5066321;28;20238;-69
2022/01/02 12:29:12;;;;;;;7.35;4.30;;;13.70;99.90;;;;;;5066017;28;20290;-67
2022/01/02 12:31:43;;;;;;;6.13;3.85;;;13.70;99.90;;;;;;5065345;28;20227;-69
2022/01/02 12:34:12;;;;;;;11.77;4.13;;;13.60;99.90;;;;;;5065788;28;20375;-69
2022/01/02 12:36:42;;;;;;;8.20;4.13;;;13.60;99.90;;;;;;5065933;28;20231;-67
2022/01/02 12:39:11;;;;;;;8.23;4.25;;;13.60;99.90;;;;;;5066265;28;20253;-68
2022/01/02 12:41:40;;;;;;;4.75;3.33;;;13.60;99.90;;;;;;5065063;28;20350;-68
2022/01/02 12:44:09;;;;;;;5.03;3.17;;;13.60;99.90;;;;;;5066243;28;20199;-68
2022/01/02 12:46:44;;;;;;;3.22;3.03;;;13.50;99.90;;;;;;5066968;28;20249;-68
2022/01/02 12:49:13;;;;;;;3.90;3.53;;;13.50;99.90;;;;;;5074362;28;20349;-68
2022/01/02 12:51:42;;;;;;;5.63;3.53;;;13.50;99.90;;;;;;5068872;28;20230;-68
2022/01/02 12:54:11;;;;;;;9.77;4.00;;;13.50;99.90;;;;;;5066158;28;20192;-69
2022/01/02 12:56:41;;;;;;;6.70;3.72;;;13.50;99.90;;;;;;5065855;28;20195;-68
2022/01/02 12:59:20;;;;;;;8.63;4.05;;;13.40;99.90;;;;;;5066520;28;20306;-68